Time;durP1;ratioP1;P1;durP2;ratioP2;P2;SDS_P1;SDS_P2;PMS_P1;PMS_P2;Temp;Humidity;BMP_temperature;BMP_pressure;BME280_temperature;BME280_humidity;BME280_pressure;Samples;Min_cycle;Max_cycle;Signal;HPM_P1;HPM_P2
2022/12/16 00:01:41;;;;;;;33.87;30.27;;;-1.70;99.90;;;;;;5054427;28;20477;-74
2022/12/16 00:04:09;;;;;;;33.03;29.63;;;-1.70;99.90;;;;;;5054428;28;20564;-74
2022/12/16 00:06:38;;;;;;;31.73;28.33;;;-1.60;99.90;;;;;;5056184;28;20558;-74
2022/12/16 00:09:06;;;;;;;33.67;30.03;;;-1.60;99.90;;;;;;5055797;28;20445;-74
2022/12/16 00:11:35;;;;;;;33.80;30.30;;;-1.60;99.90;;;;;;5056209;28;20442;-74
2022/12/16 00:14:04;;;;;;;35.00;31.20;;;-1.60;99.90;;;;;;5054648;28;20469;-74
2022/12/16 00:16:33;;;;;;;32.53;29.20;;;-1.60;99.90;;;;;;5054440;28;20485;-74
2022/12/16 00:19:02;;;;;;;34.80;31.00;;;-1.60;99.90;;;;;;5055535;28;20450;-74
2022/12/16 00:21:30;;;;;;;32.73;29.23;;;-1.60;99.90;;;;;;5055334;28;20441;-74
2022/12/16 00:23:58;;;;;;;32.93;29.43;;;-1.60;99.90;;;;;;5054005;28;20505;-74
2022/12/16 00:26:28;;;;;;;32.93;29.43;;;-1.50;99.90;;;;;;5055250;28;20438;-74
2022/12/16 00:28:57;;;;;;;32.57;29.07;;;-1.50;99.90;;;;;;5054246;28;20431;-74
2022/12/16 00:31:27;;;;;;;31.97;28.93;;;-1.50;99.90;;;;;;5055485;28;20527;-74
2022/12/16 00:33:58;;;;;;;35.43;31.80;;;-1.50;99.90;;;;;;5053962;28;20500;-74
2022/12/16 00:36:26;;;;;;;32.13;28.77;;;-1.50;99.90;;;;;;5053862;28;20458;-74
2022/12/16 00:38:55;;;;;;;33.43;30.10;;;-1.40;99.90;;;;;;5053731;28;20465;-74
2022/12/16 00:41:23;;;;;;;33.17;29.67;;;-1.40;99.90;;;;;;5050798;28;20499;-75
2022/12/16 00:43:51;;;;;;;33.37;29.70;;;-1.40;99.90;;;;;;5054100;28;20491;-74
2022/12/16 00:46:20;;;;;;;35.73;32.43;;;-1.40;99.90;;;;;;5053652;28;20944;-74
2022/12/16 00:48:48;;;;;;;35.03;31.33;;;-1.40;99.90;;;;;;5053600;28;20497;-74
2022/12/16 00:51:18;;;;;;;34.27;30.97;;;-1.40;99.90;;;;;;5053519;28;20473;-74
2022/12/16 00:53:46;;;;;;;34.20;30.60;;;-1.30;99.90;;;;;;5053441;28;20446;-74
2022/12/16 00:56:15;;;;;;;32.77;29.30;;;-1.30;99.90;;;;;;5054606;28;20461;-71
2022/12/16 00:58:43;;;;;;;33.37;29.77;;;-1.30;99.90;;;;;;5054622;28;20430;-71
2022/12/16 01:01:11;;;;;;;33.33;29.97;;;-1.30;99.90;;;;;;5053128;28;20454;-71
2022/12/16 01:03:40;;;;;;;34.50;30.93;;;-1.30;99.90;;;;;;5054448;28;20434;-72
2022/12/16 01:06:10;;;;;;;33.90;29.57;;;-1.20;99.90;;;;;;5053280;28;20474;-74
2022/12/16 01:08:47;;;;;;;31.40;28.30;;;-1.20;99.90;;;;;;5054789;28;20463;-74
2022/12/16 01:11:16;;;;;;;33.67;30.17;;;-1.20;99.90;;;;;;5054745;28;20421;-74
2022/12/16 01:13:44;;;;;;;32.60;28.53;;;-1.20;99.90;;;;;;5055106;28;20445;-74
2022/12/16 01:16:14;;;;;;;33.07;29.73;;;-1.20;99.90;;;;;;5053007;28;20479;-74
2022/12/16 01:18:42;;;;;;;32.90;29.50;;;-1.20;99.90;;;;;;5057906;28;20808;-74
2022/12/16 01:21:13;;;;;;;33.63;30.33;;;-1.20;99.90;;;;;;5056167;28;20429;-74
2022/12/16 01:23:43;;;;;;;35.13;31.63;;;-1.20;99.90;;;;;;5054073;28;20441;-74
2022/12/16 01:26:17;;;;;;;36.93;33.30;;;-1.10;99.90;;;;;;5054706;28;20442;-74
2022/12/16 01:28:47;;;;;;;35.67;31.90;;;-1.10;99.90;;;;;;5054807;28;20421;-74
2022/12/16 01:31:16;;;;;;;37.97;33.97;;;-1.10;99.90;;;;;;5051220;28;20450;-75
2022/12/16 01:33:45;;;;;;;34.83;30.93;;;-1.10;99.90;;;;;;5050862;28;20497;-74
2022/12/16 01:36:13;;;;;;;36.93;33.27;;;-1.10;99.90;;;;;;5054221;28;20480;-74
2022/12/16 01:38:44;;;;;;;32.70;29.33;;;-1.10;99.90;;;;;;5054151;28;20453;-74
2022/12/16 01:41:14;;;;;;;33.60;29.47;;;-1.10;99.90;;;;;;5053833;28;20434;-74
2022/12/16 01:43:43;;;;;;;34.93;31.00;;;-1.10;99.90;;;;;;5052754;28;20454;-74
2022/12/16 01:46:18;;;;;;;34.50;30.90;;;-1.00;99.90;;;;;;5052511;28;20519;-74
2022/12/16 01:48:51;;;;;;;33.00;29.70;;;-1.00;99.90;;;;;;5053676;28;20438;-74
2022/12/16 01:51:24;;;;;;;33.33;29.77;;;-1.00;99.90;;;;;;5052458;28;20924;-74
2022/12/16 01:54:00;;;;;;;34.77;31.17;;;-1.00;99.90;;;;;;5053253;28;20545;-74
2022/12/16 01:56:32;;;;;;;32.80;29.60;;;-1.00;99.90;;;;;;5053613;28;20450;-74
2022/12/16 01:59:01;;;;;;;33.40;30.20;;;-1.00;99.90;;;;;;5053885;28;20426;-74
2022/12/16 02:01:29;;;;;;;34.17;30.60;;;-1.00;99.90;;;;;;5053633;28;20445;-74
2022/12/16 02:04:01;;;;;;;33.30;30.10;;;-1.00;99.90;;;;;;5052253;28;20458;-74
2022/12/16 02:06:30;;;;;;;33.23;29.70;;;-1.00;99.90;;;;;;5052245;28;20473;-74
2022/12/16 02:09:03;;;;;;;34.73;31.20;;;-1.00;99.90;;;;;;5053711;28;20878;-74
2022/12/16 02:11:46;;;;;;;34.30;31.00;;;-1.00;99.90;;;;;;5053709;28;20426;-74
2022/12/16 02:14:31;;;;;;;33.20;29.73;;;-0.90;99.90;;;;;;5051674;28;20470;-74
2022/12/16 02:17:05;;;;;;;33.70;30.20;;;-0.90;99.90;;;;;;5053535;28;20504;-74
2022/12/16 02:20:27;;;;;;;33.20;29.90;;;-0.90;99.90;;;;;;5051908;28;20458;-74
2022/12/16 02:23:14;;;;;;;33.33;29.93;;;-0.90;99.90;;;;;;5051183;28;20462;-74
2022/12/16 02:26:09;;;;;;;33.83;29.80;;;-0.90;99.90;;;;;;5053444;28;20526;-74
2022/12/16 02:29:03;;;;;;;36.13;31.50;;;-0.90;99.90;;;;;;5053483;28;20919;-74
2022/12/16 02:31:37;;;;;;;34.10;30.60;;;-1.00;99.90;;;;;;5051970;28;20442;-74
2022/12/16 02:34:15;;;;;;;33.37;29.80;;;-1.00;99.90;;;;;;5051837;28;20473;-74
2022/12/16 02:37:02;;;;;;;31.93;28.70;;;-1.00;99.90;;;;;;5051767;28;20462;-74
2022/12/16 02:39:37;;;;;;;34.00;30.40;;;-1.00;99.90;;;;;;5051888;28;20450;-74
2022/12/16 02:42:13;;;;;;;32.40;29.10;;;-1.00;99.90;;;;;;5051819;28;20445;-74
2022/12/16 02:44:48;;;;;;;32.43;29.07;;;-1.00;99.90;;;;;;5053000;28;20457;-74
2022/12/16 02:47:18;;;;;;;34.23;30.50;;;-1.00;99.90;;;;;;5051767;28;20453;-74
2022/12/16 02:49:50;;;;;;;33.73;30.17;;;-1.00;99.90;;;;;;5053264;28;20445;-74
2022/12/16 02:52:21;;;;;;;33.23;29.97;;;-1.00;99.90;;;;;;5051874;28;20438;-75
2022/12/16 02:54:51;;;;;;;35.07;31.50;;;-1.00;99.90;;;;;;5053064;28;20454;-75
2022/12/16 02:57:52;;;;;;;32.17;29.13;;;-1.00;99.90;;;;;;5053180;28;20939;-74
2022/12/16 03:00:22;;;;;;;32.30;29.10;;;-1.00;99.90;;;;;;5046389;28;21001;-74
2022/12/16 03:02:59;;;;;;;33.10;30.00;;;-1.00;99.90;;;;;;5051670;28;20445;-74
2022/12/16 03:05:31;;;;;;;33.10;29.70;;;-1.00;99.90;;;;;;5053099;28;20478;-75
2022/12/16 03:08:03;;;;;;;33.60;30.20;;;-1.00;99.90;;;;;;5053175;28;20777;-74
2022/12/16 03:10:37;;;;;;;32.53;29.43;;;-1.00;99.90;;;;;;5051609;28;20453;-74
2022/12/16 03:13:07;;;;;;;31.70;28.57;;;-1.00;99.90;;;;;;5050658;28;20972;-74
2022/12/16 03:15:36;;;;;;;33.57;30.13;;;-1.00;99.90;;;;;;5051754;28;20569;-74
2022/12/16 03:18:08;;;;;;;35.37;31.97;;;-1.00;99.90;;;;;;5052687;28;20478;-74
2022/12/16 03:20:42;;;;;;;32.23;29.03;;;-1.00;99.90;;;;;;5051498;28;20474;-74
2022/12/16 03:23:13;;;;;;;32.17;29.00;;;-1.00;99.90;;;;;;5052314;28;20477;-74
2022/12/16 03:25:45;;;;;;;31.27;27.97;;;-1.00;99.90;;;;;;5054567;28;20501;-74
2022/12/16 03:28:27;;;;;;;31.37;28.17;;;-1.00;99.90;;;;;;5056676;28;20436;-74
2022/12/16 03:31:03;;;;;;;31.00;28.17;;;-1.00;99.90;;;;;;5056417;28;20915;-74
2022/12/16 03:33:38;;;;;;;31.70;28.70;;;-1.00;99.90;;;;;;5056523;28;20434;-75
2022/12/16 03:36:13;;;;;;;32.73;29.33;;;-1.00;99.90;;;;;;5056489;28;20795;-74
2022/12/16 03:38:43;;;;;;;32.30;29.13;;;-1.00;99.90;;;;;;5054900;28;20453;-74
2022/12/16 03:41:12;;;;;;;32.67;29.50;;;-1.00;99.90;;;;;;5056743;28;20808;-74
2022/12/16 03:43:41;;;;;;;34.10;30.70;;;-1.00;99.90;;;;;;5054813;28;20454;-75
2022/12/16 03:46:10;;;;;;;33.43;30.20;;;-1.00;99.90;;;;;;5056047;28;20456;-74
2022/12/16 03:48:47;;;;;;;31.60;28.40;;;-1.00;99.90;;;;;;5054727;28;20573;-74
2022/12/16 03:51:15;;;;;;;33.50;30.17;;;-1.00;99.90;;;;;;5056506;28;20429;-74
2022/12/16 03:53:44;;;;;;;34.70;31.23;;;-1.00;99.90;;;;;;5054791;28;20454;-74
2022/12/16 03:56:13;;;;;;;34.60;31.13;;;-1.00;99.90;;;;;;5054863;28;20437;-74
2022/12/16 03:58:41;;;;;;;36.00;32.40;;;-1.00;99.90;;;;;;5056379;28;20457;-74
2022/12/16 04:01:10;;;;;;;33.10;29.70;;;-1.00;99.90;;;;;;5054317;28;20924;-75
2022/12/16 04:03:38;;;;;;;32.63;29.23;;;-1.00;99.90;;;;;;5054479;28;20507;-75
2022/12/16 04:06:08;;;;;;;33.23;29.93;;;-1.00;99.90;;;;;;5056475;28;20434;-74
2022/12/16 04:08:36;;;;;;;33.13;29.80;;;-1.00;99.90;;;;;;5054372;28;20445;-74
2022/12/16 04:25:08;;;;;;;32.33;29.13;;;-1.10;99.90;;;;;;5053998;28;20473;-74
2022/12/16 04:27:36;;;;;;;33.83;30.47;;;-1.10;99.90;;;;;;5054048;28;20526;-74
2022/12/16 04:30:20;;;;;;;34.60;31.00;;;-1.10;99.90;;;;;;5055813;28;20431;-74
